sensor_id;sensor_type;location;lat;lon;timestamp;P1;P2;P0
49454;PMS5003;49011;64.658;21.218;2022-08-24T00:01:28;3;3;
49454;PMS5003;49011;64.658;21.218;2022-08-24T00:03:55;3;3;
49454;PMS5003;49011;64.658;21.218;2022-08-24T00:06:24;2;2;
49454;PMS5003;49011;64.658;21.218;2022-08-24T00:08:52;3;3;
49454;PMS5003;49011;64.658;21.218;2022-08-24T00:11:20;2;2;
49454;PMS5003;49011;64.658;21.218;2022-08-24T00:13:48;3;3;
49454;PMS5003;49011;64.658;21.218;2022-08-24T00:16:16;2;2;
49454;PMS5003;49011;64.658;21.218;2022-08-24T00:18:44;4;4;
49454;PMS5003;49011;64.658;21.218;2022-08-24T00:21:12;3;3;
49454;PMS5003;49011;64.658;21.218;2022-08-24T00:23:41;4;4;
49454;PMS5003;49011;64.658;21.218;2022-08-24T00:26:08;2;2;
49454;PMS5003;49011;64.658;21.218;2022-08-24T00:28:36;2;2;
49454;PMS5003;49011;64.658;21.218;2022-08-24T00:31:04;4;4;
49454;PMS5003;49011;64.658;21.218;2022-08-24T00:33:31;3;3;
49454;PMS5003;49011;64.658;21.218;2022-08-24T00:35:59;4;4;
49454;PMS5003;49011;64.658;21.218;2022-08-24T00:38:28;3;3;
49454;PMS5003;49011;64.658;21.218;2022-08-24T00:40:55;4;4;
49454;PMS5003;49011;64.658;21.218;2022-08-24T00:43:24;3;3;
49454;PMS5003;49011;64.658;21.218;2022-08-24T00:46:03;3;3;
49454;PMS5003;49011;64.658;21.218;2022-08-24T00:48:38;4;4;
49454;PMS5003;49011;64.658;21.218;2022-08-24T00:51:10;3;3;
49454;PMS5003;49011;64.658;21.218;2022-08-24T00:53:45;3;2;
49454;PMS5003;49011;64.658;21.218;2022-08-24T00:56:16;3;3;
49454;PMS5003;49011;64.658;21.218;2022-08-24T00:58:48;4;4;
49454;PMS5003;49011;64.658;21.218;2022-08-24T01:01:18;4;4;
49454;PMS5003;49011;64.658;21.218;2022-08-24T01:03:46;4;4;
49454;PMS5003;49011;64.658;21.218;2022-08-24T01:06:14;5;5;
49454;PMS5003;49011;64.658;21.218;2022-08-24T01:08:42;3;3;
49454;PMS5003;49011;64.658;21.218;2022-08-24T01:11:10;4;4;
49454;PMS5003;49011;64.658;21.218;2022-08-24T01:13:41;4;4;
49454;PMS5003;49011;64.658;21.218;2022-08-24T01:16:13;4;4;
49454;PMS5003;49011;64.658;21.218;2022-08-24T01:18:42;4;4;
49454;PMS5003;49011;64.658;21.218;2022-08-24T01:21:17;4;4;
49454;PMS5003;49011;64.658;21.218;2022-08-24T01:23:48;5;5;
49454;PMS5003;49011;64.658;21.218;2022-08-24T01:26:19;5;5;
49454;PMS5003;49011;64.658;21.218;2022-08-24T01:28:50;3;3;
49454;PMS5003;49011;64.658;21.218;2022-08-24T01:31:22;4;4;
49454;PMS5003;49011;64.658;21.218;2022-08-24T01:33:50;6;5;
49454;PMS5003;49011;64.658;21.218;2022-08-24T01:36:30;4;4;
49454;PMS5003;49011;64.658;21.218;2022-08-24T01:39:02;3;3;
49454;PMS5003;49011;64.658;21.218;2022-08-24T01:41:34;3;3;
49454;PMS5003;49011;64.658;21.218;2022-08-24T01:44:01;4;4;
49454;PMS5003;49011;64.658;21.218;2022-08-24T01:46:29;4;4;
49454;PMS5003;49011;64.658;21.218;2022-08-24T01:48:57;3;3;
49454;PMS5003;49011;64.658;21.218;2022-08-24T01:51:25;4;4;
49454;PMS5003;49011;64.658;21.218;2022-08-24T01:53:57;3;3;
49454;PMS5003;49011;64.658;21.218;2022-08-24T01:56:24;4;4;
49454;PMS5003;49011;64.658;21.218;2022-08-24T01:58:52;4;4;
49454;PMS5003;49011;64.658;21.218;2022-08-24T02:01:19;5;4;
49454;PMS5003;49011;64.658;21.218;2022-08-24T02:03:46;2;2;
49454;PMS5003;49011;64.658;21.218;2022-08-24T02:06:14;4;4;
49454;PMS5003;49011;64.658;21.218;2022-08-24T02:08:41;4;4;
49454;PMS5003;49011;64.658;21.218;2022-08-24T02:11:08;4;4;
49454;PMS5003;49011;64.658;21.218;2022-08-24T02:13:38;3;3;
49454;PMS5003;49011;64.658;21.218;2022-08-24T02:16:07;4;4;
49454;PMS5003;49011;64.658;21.218;2022-08-24T02:18:35;4;4;
49454;PMS5003;49011;64.658;21.218;2022-08-24T02:21:04;3;3;
49454;PMS5003;49011;64.658;21.218;2022-08-24T02:23:32;2;2;
49454;PMS5003;49011;64.658;21.218;2022-08-24T02:25:59;4;4;
49454;PMS5003;49011;64.658;21.218;2022-08-24T02:28:27;3;3;
49454;PMS5003;49011;64.658;21.218;2022-08-24T02:30:55;4;4;
49454;PMS5003;49011;64.658;21.218;2022-08-24T02:33:23;4;4;
49454;PMS5003;49011;64.658;21.218;2022-08-24T02:35:51;2;2;
49454;PMS5003;49011;64.658;21.218;2022-08-24T02:38:19;4;4;
49454;PMS5003;49011;64.658;21.218;2022-08-24T02:40:47;3;3;
49454;PMS5003;49011;64.658;21.218;2022-08-24T02:43:15;5;5;
49454;PMS5003;49011;64.658;21.218;2022-08-24T02:45:43;4;4;
49454;PMS5003;49011;64.658;21.218;2022-08-24T02:48:12;4;3;
49454;PMS5003;49011;64.658;21.218;2022-08-24T02:50:40;4;4;
49454;PMS5003;49011;64.658;21.218;2022-08-24T02:53:11;4;4;
49454;PMS5003;49011;64.658;21.218;2022-08-24T02:55:41;5;4;
49454;PMS5003;49011;64.658;21.218;2022-08-24T02:58:10;3;3;
49454;PMS5003;49011;64.658;21.218;2022-08-24T03:00:39;5;4;
49454;PMS5003;49011;64.658;21.218;2022-08-24T03:03:07;6;5;
49454;PMS5003;49011;64.658;21.218;2022-08-24T03:05:35;4;4;
49454;PMS5003;49011;64.658;21.218;2022-08-24T03:08:03;4;4;
49454;PMS5003;49011;64.658;21.218;2022-08-24T03:10:31;5;5;
49454;PMS5003;49011;64.658;21.218;2022-08-24T03:12:59;4;4;
49454;PMS5003;49011;64.658;21.218;2022-08-24T03:15:27;4;4;
49454;PMS5003;49011;64.658;21.218;2022-08-24T03:17:55;5;4;
49454;PMS5003;49011;64.658;21.218;2022-08-24T03:20:23;4;4;
49454;PMS5003;49011;64.658;21.218;2022-08-24T03:22:51;4;4;
49454;PMS5003;49011;64.658;21.218;2022-08-24T03:25:20;4;4;
49454;PMS5003;49011;64.658;21.218;2022-08-24T03:27:49;3;3;
49454;PMS5003;49011;64.658;21.218;2022-08-24T03:30:17;4;4;
49454;PMS5003;49011;64.658;21.218;2022-08-24T03:32:46;3;3;
49454;PMS5003;49011;64.658;21.218;2022-08-24T03:35:14;4;3;
49454;PMS5003;49011;64.658;21.218;2022-08-24T03:37:43;3;3;
49454;PMS5003;49011;64.658;21.218;2022-08-24T03:40:11;4;4;
49454;PMS5003;49011;64.658;21.218;2022-08-24T03:42:39;3;3;
49454;PMS5003;49011;64.658;21.218;2022-08-24T03:45:08;5;5;
49454;PMS5003;49011;64.658;21.218;2022-08-24T03:47:36;4;4;
49454;PMS5003;49011;64.658;21.218;2022-08-24T03:50:05;5;5;
49454;PMS5003;49011;64.658;21.218;2022-08-24T03:52:34;5;5;
49454;PMS5003;49011;64.658;21.218;2022-08-24T03:55:01;4;4;
49454;PMS5003;49011;64.658;21.218;2022-08-24T03:57:28;6;5;
49454;PMS5003;49011;64.658;21.218;2022-08-24T03:59:56;6;5;
49454;PMS5003;49011;64.658;21.218;2022-08-24T04:02:24;5;4;
49454;PMS5003;49011;64.658;21.218;2022-08-24T04:04:51;4;4;
49454;PMS5003;49011;64.658;21.218;2022-08-24T04:07:19;3;3;
49454;PMS5003;49011;64.658;21.218;2022-08-24T04:09:46;5;5;
49454;PMS5003;49011;64.658;21.218;2022-08-24T04:12:14;5;5;
49454;PMS5003;49011;64.658;21.218;2022-08-24T04:14:41;5;5;
49454;PMS5003;49011;64.658;21.218;2022-08-24T04:17:08;6;6;
49454;PMS5003;49011;64.658;21.218;2022-08-24T04:19:36;4;4;
49454;PMS5003;49011;64.658;21.218;2022-08-24T04:22:03;4;4;
49454;PMS5003;49011;64.658;21.218;2022-08-24T04:24:30;5;5;
49454;PMS5003;49011;64.658;21.218;2022-08-24T04:26:57;3;3;
49454;PMS5003;49011;64.658;21.218;2022-08-24T04:29:25;4;4;
49454;PMS5003;49011;64.658;21.218;2022-08-24T04:31:53;4;4;
49454;PMS5003;49011;64.658;21.218;2022-08-24T04:34:20;7;6;
49454;PMS5003;49011;64.658;21.218;2022-08-24T04:36:47;4;4;
49454;PMS5003;49011;64.658;21.218;2022-08-24T04:39:15;5;4;
49454;PMS5003;49011;64.658;21.218;2022-08-24T04:41:43;5;5;
49454;PMS5003;49011;64.658;21.218;2022-08-24T04:44:10;5;5;
49454;PMS5003;49011;64.658;21.218;2022-08-24T04:46:38;4;4;
49454;PMS5003;49011;64.658;21.218;2022-08-24T04:49:06;5;5;
49454;PMS5003;49011;64.658;21.218;2022-08-24T04:51:33;4;4;
49454;PMS5003;49011;64.658;21.218;2022-08-24T04:54:00;5;5;
49454;PMS5003;49011;64.658;21.218;2022-08-24T04:56:27;5;5;
49454;PMS5003;49011;64.658;21.218;2022-08-24T04:58:56;5;5;
49454;PMS5003;49011;64.658;21.218;2022-08-24T05:01:25;5;5;
49454;PMS5003;49011;64.658;21.218;2022-08-24T05:03:54;7;6;
49454;PMS5003;49011;64.658;21.218;2022-08-24T05:06:22;4;4;
49454;PMS5003;49011;64.658;21.218;2022-08-24T05:08:52;4;4;
49454;PMS5003;49011;64.658;21.218;2022-08-24T05:11:20;6;6;
49454;PMS5003;49011;64.658;21.218;2022-08-24T05:13:50;4;4;
49454;PMS5003;49011;64.658;21.218;2022-08-24T05:16:18;6;5;
49454;PMS5003;49011;64.658;21.218;2022-08-24T05:18:46;6;6;
49454;PMS5003;49011;64.658;21.218;2022-08-24T05:21:16;6;6;
49454;PMS5003;49011;64.658;21.218;2022-08-24T05:23:45;5;5;
49454;PMS5003;49011;64.658;21.218;2022-08-24T05:26:13;4;4;
49454;PMS5003;49011;64.658;21.218;2022-08-24T05:28:42;6;6;
49454;PMS5003;49011;64.658;21.218;2022-08-24T05:31:10;6;6;
49454;PMS5003;49011;64.658;21.218;2022-08-24T05:33:40;6;5;
49454;PMS5003;49011;64.658;21.218;2022-08-24T05:36:13;4;4;
49454;PMS5003;49011;64.658;21.218;2022-08-24T05:38:42;5;4;
49454;PMS5003;49011;64.658;21.218;2022-08-24T05:41:10;5;5;
49454;PMS5003;49011;64.658;21.218;2022-08-24T05:43:37;4;4;
49454;PMS5003;49011;64.658;21.218;2022-08-24T05:46:05;5;5;
49454;PMS5003;49011;64.658;21.218;2022-08-24T05:48:32;6;5;
49454;PMS5003;49011;64.658;21.218;2022-08-24T05:51:00;5;5;
49454;PMS5003;49011;64.658;21.218;2022-08-24T05:53:28;5;5;
49454;PMS5003;49011;64.658;21.218;2022-08-24T05:55:55;6;5;
49454;PMS5003;49011;64.658;21.218;2022-08-24T05:58:24;5;4;
49454;PMS5003;49011;64.658;21.218;2022-08-24T06:00:51;3;3;
49454;PMS5003;49011;64.658;21.218;2022-08-24T06:03:18;4;4;
49454;PMS5003;49011;64.658;21.218;2022-08-24T06:05:45;4;4;
49454;PMS5003;49011;64.658;21.218;2022-08-24T06:08:13;5;5;
49454;PMS5003;49011;64.658;21.218;2022-08-24T06:10:41;5;5;
49454;PMS5003;49011;64.658;21.218;2022-08-24T06:13:11;6;5;
49454;PMS5003;49011;64.658;21.218;2022-08-24T06:15:39;4;4;
49454;PMS5003;49011;64.658;21.218;2022-08-24T06:18:07;4;4;
49454;PMS5003;49011;64.658;21.218;2022-08-24T06:20:38;7;6;
49454;PMS5003;49011;64.658;21.218;2022-08-24T06:23:07;6;5;
49454;PMS5003;49011;64.658;21.218;2022-08-24T06:25:37;5;5;
49454;PMS5003;49011;64.658;21.218;2022-08-24T06:28:05;6;6;
49454;PMS5003;49011;64.658;21.218;2022-08-24T06:30:32;5;4;
49454;PMS5003;49011;64.658;21.218;2022-08-24T06:33:00;6;6;
49454;PMS5003;49011;64.658;21.218;2022-08-24T06:35:29;6;6;
49454;PMS5003;49011;64.658;21.218;2022-08-24T06:37:57;8;6;
49454;PMS5003;49011;64.658;21.218;2022-08-24T06:40:25;5;5;
49454;PMS5003;49011;64.658;21.218;2022-08-24T06:42:53;6;6;
49454;PMS5003;49011;64.658;21.218;2022-08-24T06:45:20;8;8;
49454;PMS5003;49011;64.658;21.218;2022-08-24T06:47:47;6;6;
49454;PMS5003;49011;64.658;21.218;2022-08-24T06:50:15;7;7;
49454;PMS5003;49011;64.658;21.218;2022-08-24T06:52:42;6;6;
49454;PMS5003;49011;64.658;21.218;2022-08-24T06:55:09;7;7;
49454;PMS5003;49011;64.658;21.218;2022-08-24T06:57:37;7;7;
49454;PMS5003;49011;64.658;21.218;2022-08-24T07:00:05;9;7;
49454;PMS5003;49011;64.658;21.218;2022-08-24T07:02:33;5;5;
49454;PMS5003;49011;64.658;21.218;2022-08-24T07:05:01;8;7;
49454;PMS5003;49011;64.658;21.218;2022-08-24T07:07:29;8;7;
49454;PMS5003;49011;64.658;21.218;2022-08-24T07:09:58;11;8;
49454;PMS5003;49011;64.658;21.218;2022-08-24T07:12:25;6;6;
49454;PMS5003;49011;64.658;21.218;2022-08-24T07:14:53;6;6;
49454;PMS5003;49011;64.658;21.218;2022-08-24T07:17:20;5;5;
49454;PMS5003;49011;64.658;21.218;2022-08-24T07:19:47;8;8;
49454;PMS5003;49011;64.658;21.218;2022-08-24T07:22:14;7;7;
49454;PMS5003;49011;64.658;21.218;2022-08-24T07:24:42;8;8;
49454;PMS5003;49011;64.658;21.218;2022-08-24T07:27:09;8;8;
49454;PMS5003;49011;64.658;21.218;2022-08-24T07:29:36;7;7;
49454;PMS5003;49011;64.658;21.218;2022-08-24T07:32:03;6;5;
49454;PMS5003;49011;64.658;21.218;2022-08-24T07:34:31;8;7;
49454;PMS5003;49011;64.658;21.218;2022-08-24T07:36:58;8;8;
49454;PMS5003;49011;64.658;21.218;2022-08-24T07:39:26;8;7;
49454;PMS5003;49011;64.658;21.218;2022-08-24T07:41:53;7;6;
49454;PMS5003;49011;64.658;21.218;2022-08-24T07:44:21;7;7;
49454;PMS5003;49011;64.658;21.218;2022-08-24T07:46:49;8;7;
49454;PMS5003;49011;64.658;21.218;2022-08-24T07:49:16;8;7;
49454;PMS5003;49011;64.658;21.218;2022-08-24T07:51:44;8;8;
49454;PMS5003;49011;64.658;21.218;2022-08-24T07:54:11;10;9;
49454;PMS5003;49011;64.658;21.218;2022-08-24T07:56:38;9;7;
49454;PMS5003;49011;64.658;21.218;2022-08-24T07:59:06;10;9;
49454;PMS5003;49011;64.658;21.218;2022-08-24T08:01:33;7;7;
49454;PMS5003;49011;64.658;21.218;2022-08-24T08:04:01;10;9;
49454;PMS5003;49011;64.658;21.218;2022-08-24T08:06:29;10;9;
49454;PMS5003;49011;64.658;21.218;2022-08-24T08:08:56;7;7;
49454;PMS5003;49011;64.658;21.218;2022-08-24T08:11:24;7;7;
49454;PMS5003;49011;64.658;21.218;2022-08-24T08:13:51;7;7;
49454;PMS5003;49011;64.658;21.218;2022-08-24T08:16:19;11;11;
49454;PMS5003;49011;64.658;21.218;2022-08-24T08:18:47;11;10;
49454;PMS5003;49011;64.658;21.218;2022-08-24T08:21:14;11;11;
49454;PMS5003;49011;64.658;21.218;2022-08-24T08:23:41;8;8;
49454;PMS5003;49011;64.658;21.218;2022-08-24T08:26:11;7;7;
49454;PMS5003;49011;64.658;21.218;2022-08-24T08:28:39;7;7;
49454;PMS5003;49011;64.658;21.218;2022-08-24T08:31:07;10;9;
49454;PMS5003;49011;64.658;21.218;2022-08-24T08:33:35;9;9;
49454;PMS5003;49011;64.658;21.218;2022-08-24T08:36:04;11;11;
49454;PMS5003;49011;64.658;21.218;2022-08-24T08:38:34;11;11;
49454;PMS5003;49011;64.658;21.218;2022-08-24T08:41:08;11;11;
49454;PMS5003;49011;64.658;21.218;2022-08-24T08:43:53;12;12;
49454;PMS5003;49011;64.658;21.218;2022-08-24T08:46:30;11;11;
49454;PMS5003;49011;64.658;21.218;2022-08-24T08:49:17;11;10;
49454;PMS5003;49011;64.658;21.218;2022-08-24T08:52:09;11;11;
49454;PMS5003;49011;64.658;21.218;2022-08-24T08:54:49;9;9;
49454;PMS5003;49011;64.658;21.218;2022-08-24T08:57:30;12;11;
49454;PMS5003;49011;64.658;21.218;2022-08-24T09:00:15;11;11;
49454;PMS5003;49011;64.658;21.218;2022-08-24T09:02:51;11;10;
49454;PMS5003;49011;64.658;21.218;2022-08-24T09:06:07;10;10;
49454;PMS5003;49011;64.658;21.218;2022-08-24T09:09:05;9;9;
49454;PMS5003;49011;64.658;21.218;2022-08-24T09:11:46;9;9;
49454;PMS5003;49011;64.658;21.218;2022-08-24T09:14:37;9;8;
49454;PMS5003;49011;64.658;21.218;2022-08-24T09:17:24;9;9;
49454;PMS5003;49011;64.658;21.218;2022-08-24T09:20:14;8;8;
49454;PMS5003;49011;64.658;21.218;2022-08-24T09:22:57;11;11;
49454;PMS5003;49011;64.658;21.218;2022-08-24T09:25:36;7;7;
49454;PMS5003;49011;64.658;21.218;2022-08-24T09:28:14;8;8;
49454;PMS5003;49011;64.658;21.218;2022-08-24T09:31:04;11;11;
49454;PMS5003;49011;64.658;21.218;2022-08-24T09:33:49;9;8;
49454;PMS5003;49011;64.658;21.218;2022-08-24T09:36:33;10;9;
49454;PMS5003;49011;64.658;21.218;2022-08-24T09:39:18;9;9;
49454;PMS5003;49011;64.658;21.218;2022-08-24T09:42:07;9;9;
49454;PMS5003;49011;64.658;21.218;2022-08-24T09:44:57;8;8;
49454;PMS5003;49011;64.658;21.218;2022-08-24T09:47:58;8;7;
49454;PMS5003;49011;64.658;21.218;2022-08-24T09:50:59;8;8;
49454;PMS5003;49011;64.658;21.218;2022-08-24T09:53:55;9;8;
49454;PMS5003;49011;64.658;21.218;2022-08-24T09:56:13;9;8;
49454;PMS5003;49011;64.658;21.218;2022-08-24T09:58:57;8;8;
49454;PMS5003;49011;64.658;21.218;2022-08-24T10:01:38;7;7;
49454;PMS5003;49011;64.658;21.218;2022-08-24T10:04:20;9;9;
49454;PMS5003;49011;64.658;21.218;2022-08-24T10:06:58;8;7;
49454;PMS5003;49011;64.658;21.218;2022-08-24T10:09:56;9;9;
49454;PMS5003;49011;64.658;21.218;2022-08-24T10:12:40;7;6;
49454;PMS5003;49011;64.658;21.218;2022-08-24T10:15:18;7;7;
49454;PMS5003;49011;64.658;21.218;2022-08-24T10:17:58;8;8;
49454;PMS5003;49011;64.658;21.218;2022-08-24T10:20:47;8;8;
49454;PMS5003;49011;64.658;21.218;2022-08-24T10:23:29;8;8;
49454;PMS5003;49011;64.658;21.218;2022-08-24T10:26:09;8;7;
49454;PMS5003;49011;64.658;21.218;2022-08-24T10:28:50;8;7;
49454;PMS5003;49011;64.658;21.218;2022-08-24T10:31:33;8;6;
49454;PMS5003;49011;64.658;21.218;2022-08-24T10:34:20;8;8;
49454;PMS5003;49011;64.658;21.218;2022-08-24T10:37:05;9;9;
49454;PMS5003;49011;64.658;21.218;2022-08-24T10:39:57;8;8;
49454;PMS5003;49011;64.658;21.218;2022-08-24T10:42:42;10;10;
49454;PMS5003;49011;64.658;21.218;2022-08-24T10:45:28;8;8;
49454;PMS5003;49011;64.658;21.218;2022-08-24T10:48:14;7;7;
49454;PMS5003;49011;64.658;21.218;2022-08-24T10:50:54;8;8;
49454;PMS5003;49011;64.658;21.218;2022-08-24T10:53:25;7;7;
49454;PMS5003;49011;64.658;21.218;2022-08-24T10:56:11;8;8;
49454;PMS5003;49011;64.658;21.218;2022-08-24T10:58:51;8;8;
49454;PMS5003;49011;64.658;21.218;2022-08-24T11:01:29;9;8;
49454;PMS5003;49011;64.658;21.218;2022-08-24T11:04:01;9;7;
49454;PMS5003;49011;64.658;21.218;2022-08-24T11:06:31;8;8;
49454;PMS5003;49011;64.658;21.218;2022-08-24T11:09:02;9;8;
49454;PMS5003;49011;64.658;21.218;2022-08-24T11:11:33;9;7;
49454;PMS5003;49011;64.658;21.218;2022-08-24T11:14:04;8;7;
49454;PMS5003;49011;64.658;21.218;2022-08-24T11:16:35;7;7;
49454;PMS5003;49011;64.658;21.218;2022-08-24T11:19:07;7;7;
49454;PMS5003;49011;64.658;21.218;2022-08-24T11:21:42;9;8;
49454;PMS5003;49011;64.658;21.218;2022-08-24T11:24:24;9;8;
49454;PMS5003;49011;64.658;21.218;2022-08-24T11:26:57;9;7;
49454;PMS5003;49011;64.658;21.218;2022-08-24T11:29:27;7;7;
49454;PMS5003;49011;64.658;21.218;2022-08-24T11:32:28;8;8;
49454;PMS5003;49011;64.658;21.218;2022-08-24T11:34:59;9;9;
49454;PMS5003;49011;64.658;21.218;2022-08-24T11:37:30;9;7;
49454;PMS5003;49011;64.658;21.218;2022-08-24T11:40:00;6;6;
49454;PMS5003;49011;64.658;21.218;2022-08-24T11:42:33;11;11;
49454;PMS5003;49011;64.658;21.218;2022-08-24T11:45:09;9;9;
49454;PMS5003;49011;64.658;21.218;2022-08-24T11:47:46;9;8;
49454;PMS5003;49011;64.658;21.218;2022-08-24T11:50:26;8;8;
49454;PMS5003;49011;64.658;21.218;2022-08-24T11:53:04;7;6;
49454;PMS5003;49011;64.658;21.218;2022-08-24T11:55:38;7;6;
49454;PMS5003;49011;64.658;21.218;2022-08-24T11:58:14;8;8;
49454;PMS5003;49011;64.658;21.218;2022-08-24T12:00:52;7;7;
49454;PMS5003;49011;64.658;21.218;2022-08-24T12:03:33;6;6;
49454;PMS5003;49011;64.658;21.218;2022-08-24T12:06:17;8;8;
49454;PMS5003;49011;64.658;21.218;2022-08-24T12:08:57;8;8;
49454;PMS5003;49011;64.658;21.218;2022-08-24T12:11:31;7;7;
49454;PMS5003;49011;64.658;21.218;2022-08-24T12:14:06;8;7;
49454;PMS5003;49011;64.658;21.218;2022-08-24T12:16:44;8;7;
49454;PMS5003;49011;64.658;21.218;2022-08-24T12:19:18;4;4;
49454;PMS5003;49011;64.658;21.218;2022-08-24T12:21:52;7;7;
49454;PMS5003;49011;64.658;21.218;2022-08-24T12:24:24;8;7;
49454;PMS5003;49011;64.658;21.218;2022-08-24T12:26:57;5;5;
49454;PMS5003;49011;64.658;21.218;2022-08-24T12:29:29;8;7;
49454;PMS5003;49011;64.658;21.218;2022-08-24T12:32:01;10;9;
49454;PMS5003;49011;64.658;21.218;2022-08-24T12:34:36;9;8;
49454;PMS5003;49011;64.658;21.218;2022-08-24T12:37:13;5;5;
49454;PMS5003;49011;64.658;21.218;2022-08-24T12:39:49;8;7;
49454;PMS5003;49011;64.658;21.218;2022-08-24T12:42:26;7;7;
49454;PMS5003;49011;64.658;21.218;2022-08-24T12:45:01;6;6;
49454;PMS5003;49011;64.658;21.218;2022-08-24T12:47:35;7;7;
49454;PMS5003;49011;64.658;21.218;2022-08-24T12:50:14;9;7;
49454;PMS5003;49011;64.658;21.218;2022-08-24T12:52:55;6;6;
49454;PMS5003;49011;64.658;21.218;2022-08-24T12:55:51;8;7;
49454;PMS5003;49011;64.658;21.218;2022-08-24T12:58:33;5;5;
49454;PMS5003;49011;64.658;21.218;2022-08-24T13:01:23;7;6;
49454;PMS5003;49011;64.658;21.218;2022-08-24T13:04:04;6;6;
49454;PMS5003;49011;64.658;21.218;2022-08-24T13:06:37;7;6;
49454;PMS5003;49011;64.658;21.218;2022-08-24T13:09:10;6;6;
49454;PMS5003;49011;64.658;21.218;2022-08-24T13:11:43;6;6;
49454;PMS5003;49011;64.658;21.218;2022-08-24T13:14:16;8;6;
49454;PMS5003;49011;64.658;21.218;2022-08-24T13:16:46;10;8;
49454;PMS5003;49011;64.658;21.218;2022-08-24T13:19:30;10;8;
49454;PMS5003;49011;64.658;21.218;2022-08-24T13:22:35;5;5;
49454;PMS5003;49011;64.658;21.218;2022-08-24T13:28:00;7;6;
49454;PMS5003;49011;64.658;21.218;2022-08-24T13:30:33;9;9;
49454;PMS5003;49011;64.658;21.218;2022-08-24T13:33:25;7;7;
49454;PMS5003;49011;64.658;21.218;2022-08-24T13:36:00;6;6;
49454;PMS5003;49011;64.658;21.218;2022-08-24T13:38:42;5;4;
49454;PMS5003;49011;64.658;21.218;2022-08-24T13:41:30;10;8;
49454;PMS5003;49011;64.658;21.218;2022-08-24T13:44:16;6;5;
49454;PMS5003;49011;64.658;21.218;2022-08-24T13:46:53;6;6;
49454;PMS5003;49011;64.658;21.218;2022-08-24T13:49:35;9;9;
49454;PMS5003;49011;64.658;21.218;2022-08-24T13:52:18;9;8;
49454;PMS5003;49011;64.658;21.218;2022-08-24T13:54:56;10;8;
49454;PMS5003;49011;64.658;21.218;2022-08-24T13:58:04;6;6;
49454;PMS5003;49011;64.658;21.218;2022-08-24T14:00:41;8;8;
49454;PMS5003;49011;64.658;21.218;2022-08-24T14:03:20;7;7;
49454;PMS5003;49011;64.658;21.218;2022-08-24T14:06:03;7;7;
49454;PMS5003;49011;64.658;21.218;2022-08-24T14:08:49;7;6;
49454;PMS5003;49011;64.658;21.218;2022-08-24T14:11:35;13;13;
49454;PMS5003;49011;64.658;21.218;2022-08-24T14:14:14;9;8;
49454;PMS5003;49011;64.658;21.218;2022-08-24T14:16:51;6;5;
49454;PMS5003;49011;64.658;21.218;2022-08-24T14:19:41;9;7;
49454;PMS5003;49011;64.658;21.218;2022-08-24T14:22:20;9;8;
49454;PMS5003;49011;64.658;21.218;2022-08-24T14:25:03;8;8;
49454;PMS5003;49011;64.658;21.218;2022-08-24T14:27:42;8;8;
49454;PMS5003;49011;64.658;21.218;2022-08-24T14:30:45;7;7;
49454;PMS5003;49011;64.658;21.218;2022-08-24T14:33:23;7;7;
49454;PMS5003;49011;64.658;21.218;2022-08-24T14:36:07;8;7;
49454;PMS5003;49011;64.658;21.218;2022-08-24T14:38:43;8;7;
49454;PMS5003;49011;64.658;21.218;2022-08-24T14:41:22;8;7;
49454;PMS5003;49011;64.658;21.218;2022-08-24T14:44:03;9;8;
49454;PMS5003;49011;64.658;21.218;2022-08-24T14:47:45;7;7;
49454;PMS5003;49011;64.658;21.218;2022-08-24T14:50:27;10;9;
49454;PMS5003;49011;64.658;21.218;2022-08-24T14:53:06;11;9;
49454;PMS5003;49011;64.658;21.218;2022-08-24T14:55:52;8;8;
49454;PMS5003;49011;64.658;21.218;2022-08-24T14:58:40;8;8;
49454;PMS5003;49011;64.658;21.218;2022-08-24T15:01:23;7;7;
49454;PMS5003;49011;64.658;21.218;2022-08-24T15:04:11;8;8;
49454;PMS5003;49011;64.658;21.218;2022-08-24T15:06:58;8;8;
49454;PMS5003;49011;64.658;21.218;2022-08-24T15:09:47;10;9;
49454;PMS5003;49011;64.658;21.218;2022-08-24T15:12:19;8;8;
49454;PMS5003;49011;64.658;21.218;2022-08-24T15:15:03;8;8;
49454;PMS5003;49011;64.658;21.218;2022-08-24T15:17:40;8;7;
49454;PMS5003;49011;64.658;21.218;2022-08-24T15:20:18;7;7;
49454;PMS5003;49011;64.658;21.218;2022-08-24T15:22:54;8;7;
49454;PMS5003;49011;64.658;21.218;2022-08-24T15:25:30;9;9;
49454;PMS5003;49011;64.658;21.218;2022-08-24T15:28:06;6;6;
49454;PMS5003;49011;64.658;21.218;2022-08-24T15:30:37;8;8;
49454;PMS5003;49011;64.658;21.218;2022-08-24T15:33:08;8;8;
49454;PMS5003;49011;64.658;21.218;2022-08-24T15:35:38;10;10;
49454;PMS5003;49011;64.658;21.218;2022-08-24T15:38:15;9;9;
49454;PMS5003;49011;64.658;21.218;2022-08-24T15:40:46;9;8;
49454;PMS5003;49011;64.658;21.218;2022-08-24T15:43:17;8;8;
49454;PMS5003;49011;64.658;21.218;2022-08-24T15:45:46;8;7;
49454;PMS5003;49011;64.658;21.218;2022-08-24T15:48:16;8;8;
49454;PMS5003;49011;64.658;21.218;2022-08-24T15:50:49;8;8;
49454;PMS5003;49011;64.658;21.218;2022-08-24T15:53:28;10;7;
49454;PMS5003;49011;64.658;21.218;2022-08-24T15:56:11;8;8;
49454;PMS5003;49011;64.658;21.218;2022-08-24T15:58:52;8;8;
49454;PMS5003;49011;64.658;21.218;2022-08-24T16:01:21;9;8;
49454;PMS5003;49011;64.658;21.218;2022-08-24T16:03:51;9;9;
49454;PMS5003;49011;64.658;21.218;2022-08-24T16:06:22;10;9;
49454;PMS5003;49011;64.658;21.218;2022-08-24T16:09:01;10;8;
49454;PMS5003;49011;64.658;21.218;2022-08-24T16:11:33;11;9;
49454;PMS5003;49011;64.658;21.218;2022-08-24T16:14:03;8;8;
49454;PMS5003;49011;64.658;21.218;2022-08-24T16:16:34;8;8;
49454;PMS5003;49011;64.658;21.218;2022-08-24T16:19:04;10;9;
49454;PMS5003;49011;64.658;21.218;2022-08-24T16:21:44;8;8;
49454;PMS5003;49011;64.658;21.218;2022-08-24T16:24:23;9;9;
49454;PMS5003;49011;64.658;21.218;2022-08-24T16:26:56;9;8;
49454;PMS5003;49011;64.658;21.218;2022-08-24T16:29:45;7;7;
49454;PMS5003;49011;64.658;21.218;2022-08-24T16:32:16;7;7;
49454;PMS5003;49011;64.658;21.218;2022-08-24T16:34:46;8;7;
49454;PMS5003;49011;64.658;21.218;2022-08-24T16:37:15;10;10;
49454;PMS5003;49011;64.658;21.218;2022-08-24T16:39:43;8;8;
49454;PMS5003;49011;64.658;21.218;2022-08-24T16:42:20;8;7;
49454;PMS5003;49011;64.658;21.218;2022-08-24T16:44:49;8;8;
49454;PMS5003;49011;64.658;21.218;2022-08-24T16:47:18;6;6;
49454;PMS5003;49011;64.658;21.218;2022-08-24T16:49:47;7;7;
49454;PMS5003;49011;64.658;21.218;2022-08-24T16:52:15;6;6;
49454;PMS5003;49011;64.658;21.218;2022-08-24T16:54:44;7;7;
49454;PMS5003;49011;64.658;21.218;2022-08-24T16:57:13;8;7;
49454;PMS5003;49011;64.658;21.218;2022-08-24T16:59:44;7;7;
49454;PMS5003;49011;64.658;21.218;2022-08-24T17:02:13;7;7;
49454;PMS5003;49011;64.658;21.218;2022-08-24T17:04:41;6;6;
49454;PMS5003;49011;64.658;21.218;2022-08-24T17:07:10;5;5;
49454;PMS5003;49011;64.658;21.218;2022-08-24T17:09:40;5;5;
49454;PMS5003;49011;64.658;21.218;2022-08-24T17:12:10;7;6;
49454;PMS5003;49011;64.658;21.218;2022-08-24T17:14:38;7;7;
49454;PMS5003;49011;64.658;21.218;2022-08-24T17:17:07;7;7;